createdAt,value
2023-04-02T00:00:11.316Z,3.28
2023-04-02T00:02:50.869Z,3.05
2023-04-02T00:07:48.811Z,3.42
2023-04-02T00:10:33.829Z,4.03
2023-04-02T00:13:25.581Z,3.65
2023-04-02T00:15:57.654Z,3.65
2023-04-02T00:18:25.304Z,3.45
2023-04-02T00:21:34.807Z,4.15
2023-04-02T00:24:08.362Z,4.43
2023-04-02T00:26:42.377Z,3.65
2023-04-02T00:29:12.513Z,4.10
2023-04-02T00:31:42.974Z,4.38
2023-04-02T00:34:17.730Z,5.00
2023-04-02T00:36:44.368Z,4.10
2023-04-02T00:39:18.277Z,3.75
2023-04-02T00:41:46.902Z,3.22
2023-04-02T00:44:15.833Z,3.10
2023-04-02T00:46:48.311Z,3.22
2023-04-02T00:49:36.449Z,3.10
2023-04-02T00:52:06.804Z,4.00
2023-04-02T00:54:41.639Z,3.53
2023-04-02T00:57:16.403Z,3.03
2023-04-02T00:59:55.066Z,4.32
2023-04-02T01:02:31.579Z,3.80
2023-04-02T01:05:19.575Z,3.78
2023-04-02T01:08:02.672Z,4.00
2023-04-02T01:10:42.857Z,3.35
2023-04-02T01:13:27.456Z,3.92
2023-04-02T01:16:01.426Z,4.35
2023-04-02T01:18:50.802Z,4.40
2023-04-02T01:21:42.432Z,3.85
2023-04-02T01:24:15.829Z,3.60
2023-04-02T01:26:51.044Z,4.57
2023-04-02T01:29:23.405Z,3.53
2023-04-02T01:31:52.133Z,4.45
2023-04-02T01:34:22.914Z,3.88
2023-04-02T01:37:17.812Z,3.88
2023-04-02T01:40:17.719Z,4.43
2023-04-02T01:43:21.378Z,3.60
2023-04-02T01:45:48.189Z,4.05
2023-04-02T01:50:49.813Z,3.67
2023-04-02T01:53:18.809Z,3.95
2023-04-02T01:55:49.769Z,4.13
2023-04-02T01:58:24.009Z,4.13
2023-04-02T02:00:59.575Z,4.07
2023-04-02T02:03:26.294Z,3.80
2023-04-02T02:05:53.094Z,3.55
2023-04-02T02:11:02.100Z,3.63
2023-04-02T02:13:28.494Z,3.53
2023-04-02T02:15:58.747Z,3.20
2023-04-02T02:18:26.155Z,2.90
2023-04-02T02:20:53.083Z,2.55
2023-04-02T02:23:21.222Z,4.10
2023-04-02T02:25:48.176Z,3.38
2023-04-02T02:28:29.338Z,3.83
2023-04-02T02:31:02.001Z,3.35
2023-04-02T02:33:38.658Z,2.88
2023-04-02T02:36:16.400Z,3.30
2023-04-02T02:39:01.028Z,3.33
2023-04-02T02:41:39.809Z,3.38
2023-04-02T02:44:09.113Z,3.90
2023-04-02T02:46:49.796Z,3.17
2023-04-02T02:49:21.954Z,4.15
2023-04-02T02:52:12.893Z,3.45
2023-04-02T02:54:43.925Z,3.50
2023-04-02T02:57:16.013Z,3.72
2023-04-02T02:59:43.094Z,3.78
2023-04-02T03:02:09.679Z,3.92
2023-04-02T03:04:36.298Z,3.60
2023-04-02T03:07:05.963Z,3.50
2023-04-02T03:10:09.860Z,3.67
2023-04-02T03:12:51.307Z,3.17
2023-04-02T03:15:41.069Z,3.97
2023-04-02T03:18:14.652Z,3.20
2023-04-02T03:20:48.644Z,3.28
2023-04-02T03:23:24.697Z,3.00
2023-04-02T03:26:17.822Z,3.63
2023-04-02T03:28:50.434Z,3.10
2023-04-02T03:31:31.308Z,2.55
2023-04-02T03:34:23.654Z,3.05
2023-04-02T03:36:57.915Z,2.47
2023-04-02T03:39:44.594Z,2.63
2023-04-02T03:42:26.054Z,3.00
2023-04-02T03:44:59.831Z,3.65
2023-04-02T03:48:01.667Z,3.35
2023-04-02T03:50:34.338Z,2.83
2023-04-02T03:53:02.694Z,2.90
2023-04-02T03:55:33.719Z,2.97
2023-04-02T03:58:06.231Z,2.97
2023-04-02T04:00:44.705Z,3.63
2023-04-02T04:03:16.116Z,2.88
2023-04-02T04:05:52.857Z,3.58
2023-04-02T04:08:26.174Z,4.22
2023-04-02T04:10:55.934Z,4.07
2023-04-02T04:13:36.277Z,4.05
2023-04-02T04:16:08.384Z,4.28
2023-04-02T04:18:47.576Z,4.32
2023-04-02T04:21:29.731Z,4.03
2023-04-02T04:24:03.882Z,4.35
2023-04-02T04:26:54.941Z,4.50
2023-04-02T04:29:32.386Z,4.90
2023-04-02T04:32:14.820Z,4.30
2023-04-02T04:34:51.575Z,5.35
2023-04-02T04:37:25.155Z,5.03
2023-04-02T04:40:05.325Z,5.00
2023-04-02T04:42:34.929Z,4.88
2023-04-02T04:45:23.114Z,5.05
2023-04-02T04:48:08.197Z,5.35
2023-04-02T04:50:47.634Z,5.78
2023-04-02T04:55:44.365Z,5.90
2023-04-02T04:58:37.269Z,6.13
2023-04-02T05:01:25.688Z,6.15
2023-04-02T05:03:59.533Z,5.53
2023-04-02T05:06:55.117Z,5.18
2023-04-02T05:09:32.429Z,5.38
2023-04-02T05:12:17.996Z,5.63
2023-04-02T05:15:08.598Z,5.50
2023-04-02T05:17:42.416Z,4.38
2023-04-02T05:20:20.444Z,6.38
2023-04-02T05:22:57.327Z,6.10
2023-04-02T05:25:29.056Z,5.30
2023-04-02T05:28:07.627Z,5.00
2023-04-02T05:30:56.307Z,5.57
2023-04-02T05:33:31.017Z,5.25
2023-04-02T05:36:11.654Z,5.35
2023-04-02T05:38:44.262Z,4.78
2023-04-02T05:41:27.069Z,5.60
2023-04-02T05:44:05.501Z,4.72
2023-04-02T05:46:36.907Z,5.45
2023-04-02T05:49:07.165Z,5.40
2023-04-02T05:51:42.832Z,5.63
2023-04-02T05:54:44.902Z,5.32
2023-04-02T05:57:20.548Z,5.43
2023-04-02T05:59:56.897Z,5.00
2023-04-02T06:02:52.921Z,6.38
2023-04-02T06:05:25.187Z,6.05
2023-04-02T06:07:59.366Z,5.97
2023-04-02T06:10:35.184Z,5.85
2023-04-02T06:13:08.731Z,5.95
2023-04-02T06:15:37.904Z,5.80
2023-04-02T06:18:24.308Z,5.68
2023-04-02T06:20:51.535Z,5.57
2023-04-02T06:23:21.394Z,6.50
2023-04-02T06:26:16.698Z,6.07
2023-04-02T06:28:47.893Z,6.50
2023-04-02T06:31:56.090Z,6.57
2023-04-02T06:34:25.838Z,4.93
2023-04-02T06:36:57.259Z,5.05
2023-04-02T06:39:26.039Z,5.20
2023-04-02T06:42:13.190Z,5.63
2023-04-02T06:44:39.899Z,5.55
2023-04-02T06:49:42.764Z,4.00
2023-04-02T06:52:23.082Z,4.20
2023-04-02T06:54:49.477Z,3.88
2023-04-02T06:57:16.159Z,4.88
2023-04-02T07:02:33.401Z,5.13
2023-04-02T07:05:11.561Z,4.78
2023-04-02T07:07:38.015Z,4.50
2023-04-02T07:10:04.868Z,4.60
2023-04-02T07:12:31.147Z,4.35
2023-04-02T07:14:57.432Z,4.65
2023-04-02T07:17:23.847Z,5.30
2023-04-02T07:19:50.265Z,4.93
2023-04-02T07:22:18.118Z,4.78
2023-04-02T07:24:45.826Z,4.72
2023-04-02T07:27:13.362Z,5.68
2023-04-02T07:29:42.774Z,5.55
2023-04-02T07:32:10.612Z,5.28
2023-04-02T07:34:37.963Z,5.78
2023-04-02T07:37:04.601Z,5.57
2023-04-02T07:41:59.930Z,4.55
2023-04-02T07:44:26.263Z,4.35
2023-04-02T07:46:53.251Z,4.78
2023-04-02T07:49:19.702Z,5.40
2023-04-02T07:51:46.050Z,5.25
2023-04-02T07:54:12.991Z,4.47
2023-04-02T07:56:39.628Z,5.25
2023-04-02T07:59:05.997Z,5.10
2023-04-02T08:01:35.502Z,4.35
2023-04-02T08:04:04.322Z,3.10
2023-04-02T08:06:31.340Z,2.38
2023-04-02T08:08:58.966Z,2.50
2023-04-02T08:11:25.400Z,2.28
2023-04-02T08:13:52.120Z,2.28
2023-04-02T08:16:18.612Z,1.50
2023-04-02T08:18:47.414Z,1.45
2023-04-02T08:21:16.229Z,1.33
2023-04-02T08:23:43.413Z,1.30
2023-04-02T08:26:09.839Z,1.63
2023-04-02T08:28:36.289Z,1.33
2023-04-02T08:31:04.548Z,1.30
2023-04-02T08:33:31.325Z,1.23
2023-04-02T08:35:57.674Z,0.80
2023-04-02T08:38:24.110Z,0.68
2023-04-02T08:40:54.205Z,0.60
2023-04-02T08:43:40.726Z,0.80
2023-04-02T08:46:16.346Z,1.20
2023-04-02T08:48:51.366Z,0.90
2023-04-02T08:51:30.731Z,1.00
2023-04-02T08:54:05.030Z,1.02
2023-04-02T08:56:43.341Z,1.02
2023-04-02T08:59:24.439Z,0.63
2023-04-02T09:02:15.745Z,1.10
2023-04-02T09:04:42.458Z,1.13
2023-04-02T09:07:14.346Z,1.48
2023-04-02T09:09:41.136Z,1.02
2023-04-02T09:12:18.294Z,0.93
2023-04-02T09:15:24.543Z,0.63
2023-04-02T09:18:00.877Z,1.08
2023-04-02T09:20:28.500Z,0.70
2023-04-02T09:22:56.696Z,0.75
2023-04-02T09:25:29.662Z,0.63
2023-04-02T09:28:00.320Z,1.13
2023-04-02T09:30:29.830Z,1.48
2023-04-02T09:33:07.528Z,0.70
2023-04-02T09:35:54.954Z,0.73
2023-04-02T09:38:30.693Z,1.20
2023-04-02T09:41:06.466Z,0.93
2023-04-02T09:43:35.718Z,1.15
2023-04-02T09:46:24.643Z,1.55
2023-04-02T09:48:58.205Z,1.00
2023-04-02T09:51:31.670Z,1.10
2023-04-02T09:54:03.795Z,1.13
2023-04-02T09:56:32.254Z,1.52
2023-04-02T09:59:07.531Z,1.35
2023-04-02T10:01:37.445Z,1.13
2023-04-02T10:04:05.989Z,1.10
2023-04-02T10:06:34.052Z,1.23
2023-04-02T10:09:39.752Z,1.55
2023-04-02T10:12:12.301Z,2.00
2023-04-02T10:14:45.968Z,1.27
2023-04-02T10:17:15.813Z,1.42
2023-04-02T10:19:48.257Z,1.65
2023-04-02T10:22:22.926Z,1.17
2023-04-02T10:24:50.784Z,2.17
2023-04-02T10:27:43.058Z,1.63
2023-04-02T10:33:03.354Z,1.23
2023-04-02T10:35:47.134Z,1.35
2023-04-02T10:38:48.883Z,1.40
2023-04-02T10:41:49.026Z,1.70
2023-04-02T10:44:35.431Z,1.35
2023-04-02T10:47:11.408Z,1.65
2023-04-02T10:50:04.906Z,1.00
2023-04-02T10:52:39.324Z,1.50
2023-04-02T10:55:18.130Z,1.70
2023-04-02T10:57:45.948Z,1.83
2023-04-02T11:00:18.118Z,1.35
2023-04-02T11:02:50.700Z,1.88
2023-04-02T11:05:23.514Z,2.20
2023-04-02T11:08:04.068Z,1.67
2023-04-02T11:10:34.684Z,1.83
2023-04-02T11:13:11.368Z,1.70
2023-04-02T11:15:38.153Z,1.52
2023-04-02T11:20:54.689Z,1.85
2023-04-02T11:23:21.533Z,1.60
2023-04-02T11:28:30.371Z,1.40
2023-04-02T11:30:57.589Z,1.98
2023-04-02T11:33:37.377Z,1.60
2023-04-02T11:36:44.052Z,1.48
2023-04-02T11:39:17.503Z,1.98
2023-04-02T11:42:00.997Z,1.67
2023-04-02T11:44:27.356Z,2.10
2023-04-02T11:47:22.411Z,1.20
2023-04-02T11:49:54.623Z,1.85
2023-04-02T11:52:22.870Z,1.65
2023-04-02T11:55:19.580Z,1.65
2023-04-02T11:58:01.658Z,1.63
2023-04-02T12:00:57.331Z,1.73
2023-04-02T12:03:35.966Z,1.63
2023-04-02T12:06:10.644Z,1.88
2023-04-02T12:08:58.307Z,1.90
2023-04-02T12:11:37.481Z,2.10
2023-04-02T12:14:45.847Z,1.77
2023-04-02T12:17:26.970Z,1.92
2023-04-02T12:20:20.250Z,1.95
2023-04-02T12:22:51.297Z,1.88
2023-04-02T12:25:29.306Z,2.22
2023-04-02T12:28:10.679Z,2.30
2023-04-02T12:30:38.628Z,1.90
2023-04-02T12:33:28.268Z,2.08
2023-04-02T12:35:58.228Z,2.00
2023-04-02T12:38:30.863Z,2.08
2023-04-02T12:40:57.163Z,2.30
2023-04-02T12:43:28.695Z,1.83
2023-04-02T12:45:58.827Z,2.55
2023-04-02T12:48:27.046Z,2.08
2023-04-02T12:50:53.968Z,2.50
2023-04-02T12:53:23.340Z,1.98
2023-04-02T12:55:51.988Z,2.65
2023-04-02T12:58:26.674Z,2.08
2023-04-02T13:01:08.341Z,1.65
2023-04-02T13:03:34.650Z,2.33
2023-04-02T13:06:01.146Z,1.83
2023-04-02T13:08:37.762Z,1.95
2023-04-02T13:11:08.419Z,2.17
2023-04-02T13:13:40.523Z,2.00
2023-04-02T13:16:24.764Z,3.33
2023-04-02T13:18:51.381Z,2.08
2023-04-02T13:21:20.735Z,2.83
2023-04-02T13:23:47.830Z,2.95
2023-04-02T13:26:22.227Z,3.08
2023-04-02T13:28:57.362Z,2.83
2023-04-02T13:31:23.720Z,2.53
2023-04-02T13:33:50.119Z,2.15
2023-04-02T13:36:16.410Z,3.30
2023-04-02T13:38:42.737Z,2.65
2023-04-02T13:41:27.670Z,2.67
2023-04-02T13:43:55.456Z,2.25
2023-04-02T13:46:24.474Z,3.20
2023-04-02T13:48:51.991Z,3.05
2023-04-02T13:51:20.476Z,3.00
2023-04-02T13:53:51.046Z,2.67
2023-04-02T13:56:17.368Z,2.38
2023-04-02T13:58:43.713Z,2.80
2023-04-02T14:01:10.154Z,2.45
2023-04-02T14:03:37.604Z,3.30
2023-04-02T14:06:35.704Z,3.58
2023-04-02T14:09:27.050Z,2.83
2023-04-02T14:12:05.944Z,3.17
2023-04-02T14:15:01.603Z,4.20
2023-04-02T14:17:47.506Z,3.28
2023-04-02T14:23:06.926Z,3.03
2023-04-02T14:25:45.210Z,4.43
2023-04-02T14:28:37.895Z,3.53
2023-04-02T14:31:15.565Z,3.88
2023-04-02T14:34:20.456Z,3.28
2023-04-02T14:37:05.254Z,3.33
2023-04-02T14:39:42.493Z,3.10
2023-04-02T14:42:47.359Z,3.40
2023-04-02T14:45:43.820Z,3.85
2023-04-02T14:48:26.544Z,4.88
2023-04-02T14:51:09.984Z,4.72
2023-04-02T14:53:58.178Z,3.55
2023-04-02T14:56:25.790Z,4.22
2023-04-02T14:59:13.342Z,4.22
2023-04-02T15:01:43.713Z,4.40
2023-04-02T15:04:20.374Z,3.88
2023-04-02T15:06:52.622Z,4.00
2023-04-02T15:09:25.216Z,4.53
2023-04-02T15:11:54.727Z,4.40
2023-04-02T15:14:31.415Z,4.75
2023-04-02T15:16:57.734Z,4.95
2023-04-02T15:19:24.044Z,3.88
2023-04-02T15:22:09.789Z,4.38
2023-04-02T15:27:28.600Z,5.75
2023-04-02T15:30:20.060Z,4.38
2023-04-02T15:32:47.072Z,4.43
2023-04-02T15:35:32.330Z,4.00
2023-04-02T15:38:22.694Z,4.30
2023-04-02T15:40:56.836Z,3.80
2023-04-02T15:43:47.775Z,4.35
2023-04-02T15:46:41.986Z,4.70
2023-04-02T15:49:27.105Z,4.70
2023-04-02T15:52:09.698Z,3.95
2023-04-02T15:54:48.011Z,4.72
2023-04-02T15:57:59.192Z,4.03
2023-04-02T16:00:30.415Z,4.28
2023-04-02T16:03:14.393Z,4.38
2023-04-02T16:06:05.698Z,4.30
2023-04-02T16:08:45.209Z,4.22
2023-04-02T16:11:14.067Z,4.00
2023-04-02T16:13:42.542Z,4.60
2023-04-02T16:16:38.689Z,4.72
2023-04-02T16:19:26.015Z,4.32
2023-04-02T16:22:02.591Z,4.40
2023-04-02T16:24:28.992Z,4.50
2023-04-02T16:27:32.569Z,4.57
2023-04-02T16:30:38.240Z,4.53
2023-04-02T16:33:23.340Z,3.90
2023-04-02T16:35:57.672Z,4.15
2023-04-02T16:38:35.987Z,3.83
2023-04-02T16:41:27.410Z,3.70
2023-04-02T16:44:21.991Z,3.65
2023-04-02T16:47:01.417Z,3.47
2023-04-02T16:50:03.030Z,3.92
2023-04-02T16:52:35.275Z,4.00
2023-04-02T16:55:34.385Z,3.47
2023-04-02T16:58:39.077Z,3.92
2023-04-02T17:01:27.046Z,3.67
2023-04-02T17:04:02.013Z,3.70
2023-04-02T17:06:35.274Z,3.58
2023-04-02T17:09:10.584Z,3.65
2023-04-02T17:12:03.136Z,4.57
2023-04-02T17:14:44.478Z,3.75
2023-04-02T17:17:14.697Z,3.95
2023-04-02T17:19:43.604Z,3.58
2023-04-02T17:22:16.563Z,3.55
2023-04-02T17:24:47.646Z,3.97
2023-04-02T17:27:35.436Z,3.28
2023-04-02T17:30:15.427Z,2.78
2023-04-02T17:32:42.549Z,2.97
2023-04-02T17:35:18.700Z,3.40
2023-04-02T17:38:03.086Z,3.63
2023-04-02T17:40:46.517Z,2.97
2023-04-02T17:43:29.115Z,3.15
2023-04-02T17:45:59.026Z,2.92
2023-04-02T17:48:41.167Z,3.72
2023-04-02T17:51:48.448Z,3.38
2023-04-02T17:54:27.642Z,3.10
2023-04-02T17:57:13.245Z,3.25
2023-04-02T17:59:45.690Z,3.72
2023-04-02T18:02:33.853Z,3.30
2023-04-02T18:05:12.554Z,3.00
2023-04-02T18:07:57.580Z,3.20
2023-04-02T18:10:31.386Z,2.92
2023-04-02T18:13:07.291Z,3.15
2023-04-02T18:15:47.531Z,4.07
2023-04-02T18:18:35.749Z,3.33
2023-04-02T18:21:08.104Z,2.65
2023-04-02T18:23:54.168Z,3.08
2023-04-02T18:29:14.056Z,2.92
2023-04-02T18:32:18.004Z,2.63
2023-04-02T18:34:59.537Z,2.47
2023-04-02T18:37:41.639Z,2.88
2023-04-02T18:40:37.674Z,2.88
2023-04-02T18:43:40.845Z,3.13
2023-04-02T18:46:31.227Z,2.97
2023-04-02T18:49:17.985Z,2.83
2023-04-02T18:51:44.280Z,3.53
2023-04-02T18:54:38.330Z,2.63
2023-04-02T18:57:15.520Z,2.80
2023-04-02T18:59:51.046Z,2.95
2023-04-02T19:02:43.052Z,3.28
2023-04-02T19:05:47.035Z,3.42
2023-04-02T19:08:22.215Z,3.05
2023-04-02T19:10:54.862Z,2.92
2023-04-02T19:13:21.464Z,3.03
2023-04-02T19:16:06.518Z,2.83
2023-04-02T19:18:55.731Z,3.63
2023-04-02T19:21:25.913Z,2.35
2023-04-02T19:24:29.691Z,3.00
2023-04-02T19:27:40.829Z,3.15
2023-04-02T19:30:20.033Z,2.70
2023-04-02T19:33:04.865Z,2.97
2023-04-02T19:35:46.465Z,3.05
2023-04-02T19:38:12.803Z,2.63
2023-04-02T19:40:46.125Z,2.88
2023-04-02T19:45:44.193Z,3.28
2023-04-02T19:48:15.712Z,3.10
2023-04-02T19:50:43.233Z,3.35
2023-04-02T19:53:09.627Z,3.00
2023-04-02T19:55:36.405Z,3.10
2023-04-02T19:58:17.244Z,2.90
2023-04-02T20:00:45.496Z,2.80
2023-04-02T20:03:11.848Z,2.08
2023-04-02T20:05:38.339Z,2.60
2023-04-02T20:08:05.018Z,2.92
2023-04-02T20:10:31.332Z,2.95
2023-04-02T20:12:57.657Z,2.70
2023-04-02T20:15:24.330Z,2.88
2023-04-02T20:17:50.950Z,2.75
2023-04-02T20:20:17.640Z,2.53
2023-04-02T20:22:44.022Z,3.15
2023-04-02T20:25:10.882Z,2.85
2023-04-02T20:27:37.266Z,2.90
2023-04-02T20:30:04.277Z,2.95
2023-04-02T20:34:56.888Z,2.42
2023-04-02T20:37:23.289Z,3.10
2023-04-02T20:39:49.832Z,2.92
2023-04-02T20:42:16.597Z,2.85
2023-04-02T20:44:42.955Z,3.03
2023-04-02T20:47:09.355Z,2.55
2023-04-02T20:49:35.717Z,2.90
2023-04-02T20:52:02.155Z,2.42
2023-04-02T20:54:28.491Z,3.13
2023-04-02T20:56:54.851Z,2.83
2023-04-02T20:59:21.196Z,2.95
2023-04-02T21:01:47.624Z,3.10
2023-04-02T21:04:14.149Z,3.22
2023-04-02T21:06:41.230Z,2.92
2023-04-02T21:09:14.478Z,2.47
2023-04-02T21:14:07.516Z,2.78
2023-04-02T21:16:34.776Z,2.67
2023-04-02T21:19:04.266Z,2.95
2023-04-02T21:21:30.788Z,3.25
2023-04-02T21:24:02.767Z,2.65
2023-04-02T21:26:33.333Z,2.70
2023-04-02T21:29:01.261Z,2.60
2023-04-02T21:31:30.187Z,2.97
2023-04-02T21:33:58.357Z,2.88
2023-04-02T21:36:27.984Z,2.65
2023-04-02T21:39:04.743Z,2.38
2023-04-02T21:41:33.487Z,2.95
2023-04-02T21:44:03.826Z,2.58
2023-04-02T21:46:33.852Z,2.72
2023-04-02T21:49:00.892Z,3.83
2023-04-02T21:51:32.675Z,2.55
2023-04-02T21:53:59.704Z,2.47
2023-04-02T21:58:55.227Z,2.95
2023-04-02T22:01:27.320Z,2.92
2023-04-02T22:03:58.903Z,3.45
2023-04-02T22:06:27.605Z,2.97
2023-04-02T22:09:01.858Z,2.65
2023-04-02T22:11:31.128Z,2.20
2023-04-02T22:13:57.938Z,2.50
2023-04-02T22:16:27.400Z,3.10
2023-04-02T22:18:55.745Z,3.33
2023-04-02T22:21:22.761Z,2.78
2023-04-02T22:23:49.620Z,3.20
2023-04-02T22:26:17.467Z,3.10
2023-04-02T22:28:43.800Z,2.83
2023-04-02T22:31:16.033Z,3.33
2023-04-02T22:33:43.707Z,2.95
2023-04-02T22:36:10.940Z,2.38
2023-04-02T22:38:38.046Z,3.08
2023-04-02T22:43:37.292Z,2.25
2023-04-02T22:46:04.657Z,2.80
2023-04-02T22:48:31.296Z,2.65
2023-04-02T22:50:57.617Z,2.65
2023-04-02T22:53:24.312Z,2.53
2023-04-02T22:55:52.203Z,2.28
2023-04-02T22:58:19.744Z,3.22
2023-04-02T23:00:46.816Z,2.63
2023-04-02T23:03:13.370Z,3.20
2023-04-02T23:05:40.293Z,2.72
2023-04-02T23:08:06.946Z,3.42
2023-04-02T23:10:33.323Z,2.83
2023-04-02T23:12:59.627Z,2.78
2023-04-02T23:15:25.968Z,2.90
2023-04-02T23:17:52.326Z,2.72
2023-04-02T23:20:18.806Z,2.55
2023-04-02T23:22:45.369Z,2.95
2023-04-02T23:25:11.660Z,3.00
2023-04-02T23:27:38.059Z,3.13
2023-04-02T23:30:06.375Z,2.58
2023-04-02T23:32:33.298Z,2.60
2023-04-02T23:49:37.303Z,2.92
2023-04-02T23:52:03.714Z,2.75
2023-04-02T23:54:30.153Z,2.65
2023-04-02T23:56:56.461Z,3.55
2023-04-02T23:59:22.797Z,3.33
